Duluth, Minnesota
Current Conditions -  °F | °C
As of 2:16 PM on Monday 26 Jan 2015 (Local Time) from KDLH Reporting Station
Light Snow Light Snow  
Wind Chill: -4°   Ceiling: 1400
Heat Index: -1°   Visibility: 1.7mi
Dew Point: -3°   Wind: 5mph
Humidity: 85%   Direction: 310°NW
Pressure: 29.66"   Gusts: NA
Location:  46.79°N, 92.09°W
Report Text: KDLH 262016Z 31004KT 1 3/4SM -SN BR FEW006 OVC014 M01/M03 A2966 RMK AO2 P0000 T10111033
Loading
Personal Weather Stations






























Interactive Weather Map New forecast layout! Learn more

10-Day Weather Forecast

Advertisements
Track Severe Weather on mobile